Contreras, New Mexico
Current Conditions -  °F | °C
As of 7:15 AM on Thursday 29 Jan 2015 (Local Time) from KONM Reporting Station
Clear Clear  
Wind Chill: 40°   Ceiling: Unl
Heat Index: 43°   Visibility: 10mi
Dew Point: 32°   Wind: 6mph
Humidity: 64%   Direction: 330°NNW
Pressure: 30.34"   Gusts: NA
Location:  34.3166°N, 106.801°W
Report Text: KONM 291415Z AUTO 33005KT 10SM CLR 06/00 A3034 RMK AO2 T00630000
Loading
Personal Weather Stations






























Interactive Weather Map New forecast layout! Learn more

10-Day Weather Forecast

Advertisements
Track Severe Weather on mobile